< < Back
Terminal Aerodrome Forecast


Current Version              Previous Versions:   1  2  3  4  5  6  7  8  9  

Terminal Aerodrome Forecast

173
FTUS44 KMRX 231014 AAA
TAFCHA
TAF AMD
KCHA 231014Z 2310/2406 00000KT 5SM BR SCT002
      TEMPO 2310/2313 2SM BR
     FM231300 00000KT P6SM SCT005 BKN120
     FM231500 23005KT P6SM VCTS SCT035CB BKN150 BKN250
     FM240200 VRB03KT P6SM FEW040 SCT150 BKN250=



Latest METAR

606
SAUS80 KWBC 231800
MTRCHA
METAR KCHA 231753Z COR 36007KT 10SM SCT045TCU BKN110 BKN200 BKN250 32/20
A3006 RMK AO2 LTG DSNT N SLP171 CB DSNT NW-N AND TCU OHD
T03220200 10322 20228 57017


USA.gov is the U.S. government's official web portal to all federal, state and local government web resources and services.